sensor_id;sensor_type;location;lat;lon;timestamp;pressure;altitude;pressure_sealevel;temperature
6550;BMP280;15142;48.888;9.134;2022-12-10T00:01:06;96881.22;;;1.96
6550;BMP280;15142;48.888;9.134;2022-12-10T00:03:33;96884.00;;;1.99
6550;BMP280;15142;48.888;9.134;2022-12-10T00:06:01;96889.75;;;1.95
6550;BMP280;15142;48.888;9.134;2022-12-10T00:08:29;96883.38;;;1.87
6550;BMP280;15142;48.888;9.134;2022-12-10T00:10:56;96891.72;;;1.88
6550;BMP280;15142;48.888;9.134;2022-12-10T00:13:23;96890.22;;;1.92
6550;BMP280;15142;48.888;9.134;2022-12-10T00:15:49;96887.66;;;1.87
6550;BMP280;15142;48.888;9.134;2022-12-10T00:18:17;96890.41;;;1.80
6550;BMP280;15142;48.888;9.134;2022-12-10T00:20:44;96887.66;;;1.87
6550;BMP280;15142;48.888;9.134;2022-12-10T00:23:11;96888.94;;;1.89
6550;BMP280;15142;48.888;9.134;2022-12-10T00:25:37;96891.41;;;1.84
6550;BMP280;15142;48.888;9.134;2022-12-10T00:28:04;96894.38;;;1.76
6550;BMP280;15142;48.888;9.134;2022-12-10T00:30:30;96883.09;;;1.79
6550;BMP280;15142;48.888;9.134;2022-12-10T00:32:58;96887.63;;;1.82
6550;BMP280;15142;48.888;9.134;2022-12-10T00:35:26;96893.69;;;1.86
6550;BMP280;15142;48.888;9.134;2022-12-10T00:37:53;96881.34;;;1.84
6550;BMP280;15142;48.888;9.134;2022-12-10T00:40:20;96884.09;;;1.78
6550;BMP280;15142;48.888;9.134;2022-12-10T00:42:47;96888.63;;;1.81
6550;BMP280;15142;48.888;9.134;2022-12-10T00:45:14;96885.13;;;1.82
6550;BMP280;15142;48.888;9.134;2022-12-10T00:47:40;96882.81;;;1.75
6550;BMP280;15142;48.888;9.134;2022-12-10T00:50:07;96887.59;;;1.77
6550;BMP280;15142;48.888;9.134;2022-12-10T00:52:35;96880.81;;;1.77
6550;BMP280;15142;48.888;9.134;2022-12-10T00:55:02;96882.34;;;1.78
6550;BMP280;15142;48.888;9.134;2022-12-10T00:57:29;96886.03;;;1.71
6550;BMP280;15142;48.888;9.134;2022-12-10T00:59:55;96896.50;;;1.63
6550;BMP280;15142;48.888;9.134;2022-12-10T01:02:22;96898.81;;;1.65
6550;BMP280;15142;48.888;9.134;2022-12-10T01:04:52;96904.63;;;1.70
6550;BMP280;15142;48.888;9.134;2022-12-10T01:07:18;96914.44;;;1.72
6550;BMP280;15142;48.888;9.134;2022-12-10T01:09:46;96912.44;;;1.74
6550;BMP280;15142;48.888;9.134;2022-12-10T01:12:13;96912.75;;;1.77
6550;BMP280;15142;48.888;9.134;2022-12-10T01:14:40;96910.97;;;1.77
6550;BMP280;15142;48.888;9.134;2022-12-10T01:17:08;96915.03;;;1.78
6550;BMP280;15142;48.888;9.134;2022-12-10T01:19:35;96920.56;;;1.80
6550;BMP280;15142;48.888;9.134;2022-12-10T01:22:02;96923.09;;;1.80
6550;BMP280;15142;48.888;9.134;2022-12-10T01:24:29;96926.59;;;1.79
6550;BMP280;15142;48.888;9.134;2022-12-10T01:26:57;96926.84;;;1.78
6550;BMP280;15142;48.888;9.134;2022-12-10T01:29:24;96925.53;;;1.75
6550;BMP280;15142;48.888;9.134;2022-12-10T01:31:53;96938.09;;;1.75
6550;BMP280;15142;48.888;9.134;2022-12-10T01:34:20;96941.09;;;1.73
6550;BMP280;15142;48.888;9.134;2022-12-10T01:36:49;96935.00;;;1.64
6550;BMP280;15142;48.888;9.134;2022-12-10T01:39:17;96930.94;;;1.63
6550;BMP280;15142;48.888;9.134;2022-12-10T01:41:46;96936.53;;;1.70
6550;BMP280;15142;48.888;9.134;2022-12-10T01:44:58;96945.31;;;1.67
6550;BMP280;15142;48.888;9.134;2022-12-10T01:47:26;96952.59;;;1.64
6550;BMP280;15142;48.888;9.134;2022-12-10T01:49:53;96949.03;;;1.60
6550;BMP280;15142;48.888;9.134;2022-12-10T01:52:20;96945.50;;;1.61
6550;BMP280;15142;48.888;9.134;2022-12-10T01:54:47;96948.09;;;1.66
6550;BMP280;15142;48.888;9.134;2022-12-10T01:57:16;96952.34;;;1.65
6550;BMP280;15142;48.888;9.134;2022-12-10T01:59:45;96955.84;;;1.64
6550;BMP280;15142;48.888;9.134;2022-12-10T02:02:19;96952.94;;;1.72
6550;BMP280;15142;48.888;9.134;2022-12-10T02:05:01;96949.41;;;1.73
6550;BMP280;15142;48.888;9.134;2022-12-10T02:07:43;96945.13;;;1.74
6550;BMP280;15142;48.888;9.134;2022-12-10T02:10:23;96941.16;;;1.77
6550;BMP280;15142;48.888;9.134;2022-12-10T02:12:58;96940.63;;;1.75
6550;BMP280;15142;48.888;9.134;2022-12-10T02:15:30;96937.84;;;1.72
6550;BMP280;15142;48.888;9.134;2022-12-10T02:18:04;96938.03;;;1.66
6550;BMP280;15142;48.888;9.134;2022-12-10T02:20:36;96933.00;;;1.66
6550;BMP280;15142;48.888;9.134;2022-12-10T02:23:09;96936.78;;;1.68
6550;BMP280;15142;48.888;9.134;2022-12-10T02:25:41;96932.00;;;1.67
6550;BMP280;15142;48.888;9.134;2022-12-10T02:28:13;96942.06;;;1.67
6550;BMP280;15142;48.888;9.134;2022-12-10T02:30:46;96929.47;;;1.67
6550;BMP280;15142;48.888;9.134;2022-12-10T02:33:16;96932.41;;;1.59
6550;BMP280;15142;48.888;9.134;2022-12-10T02:35:46;96931.66;;;1.58
6550;BMP280;15142;48.888;9.134;2022-12-10T02:38:16;96930.38;;;1.56
6550;BMP280;15142;48.888;9.134;2022-12-10T02:40:46;96924.84;;;1.54
6550;BMP280;15142;48.888;9.134;2022-12-10T02:43:14;96929.38;;;1.57
6550;BMP280;15142;48.888;9.134;2022-12-10T02:45:46;96934.41;;;1.57
6550;BMP280;15142;48.888;9.134;2022-12-10T02:48:13;96922.84;;;1.56
6550;BMP280;15142;48.888;9.134;2022-12-10T02:50:42;96927.91;;;1.61
6550;BMP280;15142;48.888;9.134;2022-12-10T02:53:09;96922.84;;;1.56
6550;BMP280;15142;48.888;9.134;2022-12-10T02:55:51;96911.56;;;1.58
6550;BMP280;15142;48.888;9.134;2022-12-10T02:58:28;96916.59;;;1.58
6550;BMP280;15142;48.888;9.134;2022-12-10T03:01:01;96907.25;;;1.54
6550;BMP280;15142;48.888;9.134;2022-12-10T03:03:36;96891.81;;;1.45
6550;BMP280;15142;48.888;9.134;2022-12-10T03:06:09;96894.56;;;1.44
6550;BMP280;15142;48.888;9.134;2022-12-10T03:08:41;96891.69;;;1.36
6550;BMP280;15142;48.888;9.134;2022-12-10T03:11:12;96881.31;;;1.22
6550;BMP280;15142;48.888;9.134;2022-12-10T03:13:46;96886.50;;;1.16
6550;BMP280;15142;48.888;9.134;2022-12-10T03:16:16;96889.25;;;1.14
6550;BMP280;15142;48.888;9.134;2022-12-10T03:18:44;96902.03;;;1.13
6550;BMP280;15142;48.888;9.134;2022-12-10T03:21:14;96910.19;;;1.04
6550;BMP280;15142;48.888;9.134;2022-12-10T03:23:43;96911.66;;;1.00
6550;BMP280;15142;48.888;9.134;2022-12-10T03:26:12;96917.16;;;0.97
6550;BMP280;15142;48.888;9.134;2022-12-10T03:28:42;96917.59;;;0.94
6550;BMP280;15142;48.888;9.134;2022-12-10T03:31:11;96916.09;;;0.93
6550;BMP280;15142;48.888;9.134;2022-12-10T03:33:40;96910.06;;;0.94
6550;BMP280;15142;48.888;9.134;2022-12-10T03:36:08;96898.44;;;0.88
6550;BMP280;15142;48.888;9.134;2022-12-10T03:38:36;96908.63;;;0.98
6550;BMP280;15142;48.888;9.134;2022-12-10T03:41:03;96899.09;;;1.00
6550;BMP280;15142;48.888;9.134;2022-12-10T03:43:30;96897.66;;;1.04
6550;BMP280;15142;48.888;9.134;2022-12-10T03:45:57;96879.09;;;1.05
6550;BMP280;15142;48.888;9.134;2022-12-10T03:48:23;96894.38;;;1.03
6550;BMP280;15142;48.888;9.134;2022-12-10T03:50:51;96895.31;;;0.97
6550;BMP280;15142;48.888;9.134;2022-12-10T03:53:18;96902.00;;;0.92
6550;BMP280;15142;48.888;9.134;2022-12-10T03:55:44;96913.06;;;0.91
6550;BMP280;15142;48.888;9.134;2022-12-10T03:58:11;96919.00;;;0.85
6550;BMP280;15142;48.888;9.134;2022-12-10T04:00:37;96928.28;;;0.84
6550;BMP280;15142;48.888;9.134;2022-12-10T04:03:04;96943.56;;;0.83
6550;BMP280;15142;48.888;9.134;2022-12-10T04:05:31;96947.09;;;0.82
6550;BMP280;15142;48.888;9.134;2022-12-10T04:07:58;96953.56;;;0.78
6550;BMP280;15142;48.888;9.134;2022-12-10T04:10:25;96947.53;;;0.79
6550;BMP280;15142;48.888;9.134;2022-12-10T04:12:51;96956.13;;;0.83
6550;BMP280;15142;48.888;9.134;2022-12-10T04:15:32;96946.94;;;0.88
6550;BMP280;15142;48.888;9.134;2022-12-10T04:18:18;96947.50;;;0.95
6550;BMP280;15142;48.888;9.134;2022-12-10T04:20:45;96944.69;;;0.92
6550;BMP280;15142;48.888;9.134;2022-12-10T04:23:30;96948.50;;;0.94
6550;BMP280;15142;48.888;9.134;2022-12-10T04:26:15;96941.06;;;0.83
6550;BMP280;15142;48.888;9.134;2022-12-10T04:28:58;96944.28;;;0.78
6550;BMP280;15142;48.888;9.134;2022-12-10T04:31:25;96951.28;;;0.76
6550;BMP280;15142;48.888;9.134;2022-12-10T04:33:51;96945.25;;;0.77
6550;BMP280;15142;48.888;9.134;2022-12-10T04:36:18;96951.63;;;0.85
6550;BMP280;15142;48.888;9.134;2022-12-10T04:38:46;96960.19;;;0.84
6550;BMP280;15142;48.888;9.134;2022-12-10T04:41:12;96959.66;;;0.82
6550;BMP280;15142;48.888;9.134;2022-12-10T04:43:40;96963.19;;;0.86
6550;BMP280;15142;48.888;9.134;2022-12-10T04:46:07;96962.59;;;0.79
6550;BMP280;15142;48.888;9.134;2022-12-10T04:48:34;96958.09;;;0.81
6550;BMP280;15142;48.888;9.134;2022-12-10T04:51:01;96964.72;;;0.87
6550;BMP280;15142;48.888;9.134;2022-12-10T04:53:27;96963.88;;;0.81
6550;BMP280;15142;48.888;9.134;2022-12-10T04:55:55;96972.47;;;0.85
6550;BMP280;15142;48.888;9.134;2022-12-10T04:58:22;96973.16;;;0.81
6550;BMP280;15142;48.888;9.134;2022-12-10T05:00:48;96969.91;;;0.80
6550;BMP280;15142;48.888;9.134;2022-12-10T05:03:15;96970.72;;;0.86
6550;BMP280;15142;48.888;9.134;2022-12-10T05:05:41;96973.91;;;0.81
6550;BMP280;15142;48.888;9.134;2022-12-10T05:08:08;96967.72;;;0.84
6550;BMP280;15142;48.888;9.134;2022-12-10T05:10:35;96975.75;;;0.86
6550;BMP280;15142;48.888;9.134;2022-12-10T05:13:03;96961.72;;;0.90
6550;BMP280;15142;48.888;9.134;2022-12-10T05:15:29;96958.25;;;0.91
6550;BMP280;15142;48.888;9.134;2022-12-10T05:17:56;96960.06;;;0.95
6550;BMP280;15142;48.888;9.134;2022-12-10T05:20:22;96962.56;;;0.95
6550;BMP280;15142;48.888;9.134;2022-12-10T05:22:49;96963.28;;;0.91
6550;BMP280;15142;48.888;9.134;2022-12-10T05:25:33;96955.78;;;0.96
6550;BMP280;15142;48.888;9.134;2022-12-10T05:28:19;96958.31;;;0.96
6550;BMP280;15142;48.888;9.134;2022-12-10T05:30:46;96968.13;;;0.97
6550;BMP280;15142;48.888;9.134;2022-12-10T05:33:13;96971.91;;;1.00
6550;BMP280;15142;48.888;9.134;2022-12-10T05:35:39;96971.91;;;1.00
6550;BMP280;15142;48.888;9.134;2022-12-10T05:38:06;96973.38;;;0.96
6550;BMP280;15142;48.888;9.134;2022-12-10T05:40:34;96976.78;;;0.90
6550;BMP280;15142;48.888;9.134;2022-12-10T05:43:00;96970.78;;;0.91
6550;BMP280;15142;48.888;9.134;2022-12-10T05:45:28;96983.78;;;0.88
6550;BMP280;15142;48.888;9.134;2022-12-10T05:47:57;96986.84;;;0.90
6550;BMP280;15142;48.888;9.134;2022-12-10T05:50:24;96991.84;;;0.90
6550;BMP280;15142;48.888;9.134;2022-12-10T05:52:51;96981.53;;;0.86
6550;BMP280;15142;48.888;9.134;2022-12-10T05:55:19;96988.81;;;0.88
6550;BMP280;15142;48.888;9.134;2022-12-10T05:57:46;96986.31;;;0.88
6550;BMP280;15142;48.888;9.134;2022-12-10T06:00:13;96978.56;;;0.89
6550;BMP280;15142;48.888;9.134;2022-12-10T06:02:41;96981.91;;;0.95
6550;BMP280;15142;48.888;9.134;2022-12-10T06:05:08;96983.50;;;1.01
6550;BMP280;15142;48.888;9.134;2022-12-10T06:07:35;96990.28;;;1.00
6550;BMP280;15142;48.888;9.134;2022-12-10T06:10:02;96991.47;;;0.98
6550;BMP280;15142;48.888;9.134;2022-12-10T06:12:28;96998.56;;;1.01
6550;BMP280;15142;48.888;9.134;2022-12-10T06:14:55;96999.53;;;1.00
6550;BMP280;15142;48.888;9.134;2022-12-10T06:17:21;96995.03;;;1.02
6550;BMP280;15142;48.888;9.134;2022-12-10T06:19:49;97000.69;;;1.08
6550;BMP280;15142;48.888;9.134;2022-12-10T06:22:16;97001.44;;;1.09
6550;BMP280;15142;48.888;9.134;2022-12-10T06:24:42;96999.31;;;1.01
6550;BMP280;15142;48.888;9.134;2022-12-10T06:27:09;97006.31;;;0.99
6550;BMP280;15142;48.888;9.134;2022-12-10T06:29:35;97006.09;;;1.01
6550;BMP280;15142;48.888;9.134;2022-12-10T06:32:02;96999.09;;;1.03
6550;BMP280;15142;48.888;9.134;2022-12-10T06:34:29;97004.03;;;0.98
6550;BMP280;15142;48.888;9.134;2022-12-10T06:36:57;97014.59;;;1.00
6550;BMP280;15142;48.888;9.134;2022-12-10T06:39:23;97009.56;;;1.00
6550;BMP280;15142;48.888;9.134;2022-12-10T06:41:50;97018.66;;;1.01
6550;BMP280;15142;48.888;9.134;2022-12-10T06:44:16;97020.53;;;0.94
6550;BMP280;15142;48.888;9.134;2022-12-10T06:46:43;97022.28;;;0.93
6550;BMP280;15142;48.888;9.134;2022-12-10T06:49:10;97020.31;;;0.95
6550;BMP280;15142;48.888;9.134;2022-12-10T06:51:36;97022.13;;;1.00
6550;BMP280;15142;48.888;9.134;2022-12-10T06:54:05;97022.66;;;1.02
6550;BMP280;15142;48.888;9.134;2022-12-10T06:56:32;97022.66;;;1.02
6550;BMP280;15142;48.888;9.134;2022-12-10T06:58:58;97030.19;;;1.02
6550;BMP280;15142;48.888;9.134;2022-12-10T07:01:25;97027.16;;;1.00
6550;BMP280;15142;48.888;9.134;2022-12-10T07:03:53;97020.94;;;1.02
6550;BMP280;15142;48.888;9.134;2022-12-10T07:06:21;97018.13;;;0.99
6550;BMP280;15142;48.888;9.134;2022-12-10T07:08:49;97026.88;;;0.96
6550;BMP280;15142;48.888;9.134;2022-12-10T07:11:20;97030.28;;;0.90
6550;BMP280;15142;48.888;9.134;2022-12-10T07:13:47;97027.53;;;0.92
6550;BMP280;15142;48.888;9.134;2022-12-10T07:16:15;97024.59;;;0.95
6550;BMP280;15142;48.888;9.134;2022-12-10T07:18:42;97025.81;;;0.92
6550;BMP280;15142;48.888;9.134;2022-12-10T07:21:14;97030.03;;;0.92
6550;BMP280;15142;48.888;9.134;2022-12-10T07:23:41;97035.06;;;0.92
6550;BMP280;15142;48.888;9.134;2022-12-10T07:26:07;97034.09;;;0.93
6550;BMP280;15142;48.888;9.134;2022-12-10T07:28:35;97039.03;;;0.88
6550;BMP280;15142;48.888;9.134;2022-12-10T07:31:02;97044.28;;;0.86
6550;BMP280;15142;48.888;9.134;2022-12-10T07:33:29;97056.69;;;0.93
6550;BMP280;15142;48.888;9.134;2022-12-10T07:35:56;97051.72;;;0.98
6550;BMP280;15142;48.888;9.134;2022-12-10T07:38:22;97058.34;;;1.04
6550;BMP280;15142;48.888;9.134;2022-12-10T07:40:49;97066.19;;;1.07
6550;BMP280;15142;48.888;9.134;2022-12-10T07:43:16;97059.41;;;1.07
6550;BMP280;15142;48.888;9.134;2022-12-10T07:45:44;97060.94;;;1.08
6550;BMP280;15142;48.888;9.134;2022-12-10T07:48:11;97061.00;;;1.13
6550;BMP280;15142;48.888;9.134;2022-12-10T07:50:37;97065.22;;;1.08
6550;BMP280;15142;48.888;9.134;2022-12-10T07:53:04;97067.47;;;1.09
6550;BMP280;15142;48.888;9.134;2022-12-10T07:55:31;97064.69;;;1.06
6550;BMP280;15142;48.888;9.134;2022-12-10T07:57:58;97075.63;;;1.16
6550;BMP280;15142;48.888;9.134;2022-12-10T08:00:24;97083.06;;;1.11
6550;BMP280;15142;48.888;9.134;2022-12-10T08:02:52;97082.63;;;1.14
6550;BMP280;15142;48.888;9.134;2022-12-10T08:05:19;97075.41;;;1.18
6550;BMP280;15142;48.888;9.134;2022-12-10T08:07:45;97081.25;;;1.23
6550;BMP280;15142;48.888;9.134;2022-12-10T08:10:12;97081.00;;;1.25
6550;BMP280;15142;48.888;9.134;2022-12-10T08:12:38;97087.03;;;1.24
6550;BMP280;15142;48.888;9.134;2022-12-10T08:15:06;97089.09;;;1.27
6550;BMP280;15142;48.888;9.134;2022-12-10T08:17:34;97094.22;;;1.37
6550;BMP280;15142;48.888;9.134;2022-12-10T08:20:03;97098.38;;;1.26
6550;BMP280;15142;48.888;9.134;2022-12-10T08:22:29;97102.44;;;1.32
6550;BMP280;15142;48.888;9.134;2022-12-10T08:24:56;97098.78;;;1.39
6550;BMP280;15142;48.888;9.134;2022-12-10T08:27:22;97091.31;;;1.44
6550;BMP280;15142;48.888;9.134;2022-12-10T08:29:49;97088.72;;;1.39
6550;BMP280;15142;48.888;9.134;2022-12-10T08:32:15;97090.09;;;1.47
6550;BMP280;15142;48.888;9.134;2022-12-10T08:34:42;97091.09;;;1.46
6550;BMP280;15142;48.888;9.134;2022-12-10T08:37:10;97090.69;;;1.54
6550;BMP280;15142;48.888;9.134;2022-12-10T08:39:36;97094.19;;;1.53
6550;BMP280;15142;48.888;9.134;2022-12-10T08:42:03;97093.78;;;1.61
6550;BMP280;15142;48.888;9.134;2022-12-10T08:44:30;97090.34;;;1.67
6550;BMP280;15142;48.888;9.134;2022-12-10T08:46:56;97085.31;;;1.67
6550;BMP280;15142;48.888;9.134;2022-12-10T08:49:23;97088.38;;;1.69
6550;BMP280;15142;48.888;9.134;2022-12-10T08:51:49;97085.41;;;1.55
6550;BMP280;15142;48.888;9.134;2022-12-10T08:54:17;97095.25;;;1.57
6550;BMP280;15142;48.888;9.134;2022-12-10T08:56:44;97090.75;;;1.59
6550;BMP280;15142;48.888;9.134;2022-12-10T08:59:10;97099.34;;;1.63
6550;BMP280;15142;48.888;9.134;2022-12-10T09:01:37;97111.03;;;1.74
6550;BMP280;15142;48.888;9.134;2022-12-10T09:04:03;97105.56;;;1.76
6550;BMP280;15142;48.888;9.134;2022-12-10T09:06:30;97121.72;;;1.85
6550;BMP280;15142;48.888;9.134;2022-12-10T09:08:57;97114.72;;;1.87
6550;BMP280;15142;48.888;9.134;2022-12-10T09:11:27;97123.19;;;1.81
6550;BMP280;15142;48.888;9.134;2022-12-10T09:13:54;97116.53;;;1.71
6550;BMP280;15142;48.888;9.134;2022-12-10T09:16:24;97120.66;;;1.76
6550;BMP280;15142;48.888;9.134;2022-12-10T09:18:53;97118.06;;;1.72
6550;BMP280;15142;48.888;9.134;2022-12-10T09:21:19;97115.31;;;1.73
6550;BMP280;15142;48.888;9.134;2022-12-10T09:23:46;97117.19;;;1.82
6550;BMP280;15142;48.888;9.134;2022-12-10T09:26:15;97113.72;;;1.88
6550;BMP280;15142;48.888;9.134;2022-12-10T09:28:44;97124.91;;;1.97
6550;BMP280;15142;48.888;9.134;2022-12-10T09:31:11;97129.78;;;2.04
6550;BMP280;15142;48.888;9.134;2022-12-10T09:33:38;97130.44;;;1.99
6550;BMP280;15142;48.888;9.134;2022-12-10T09:36:06;97142.38;;;1.87
6550;BMP280;15142;48.888;9.134;2022-12-10T09:38:34;97143.16;;;1.88
6550;BMP280;15142;48.888;9.134;2022-12-10T09:41:01;97149.59;;;2.00
6550;BMP280;15142;48.888;9.134;2022-12-10T09:43:42;97148.47;;;1.91
6550;BMP280;15142;48.888;9.134;2022-12-10T09:46:21;97143.81;;;1.78
6550;BMP280;15142;48.888;9.134;2022-12-10T09:48:58;97141.84;;;1.64
6550;BMP280;15142;48.888;9.134;2022-12-10T09:51:28;97135.91;;;1.70
6550;BMP280;15142;48.888;9.134;2022-12-10T09:53:57;97138.16;;;1.72
6550;BMP280;15142;48.888;9.134;2022-12-10T09:56:26;97137.41;;;1.92
6550;BMP280;15142;48.888;9.134;2022-12-10T09:58:55;97140.13;;;1.86
6550;BMP280;15142;48.888;9.134;2022-12-10T10:01:27;97136.81;;;1.85
6550;BMP280;15142;48.888;9.134;2022-12-10T10:03:55;97133.31;;;1.86
6550;BMP280;15142;48.888;9.134;2022-12-10T10:06:23;97145.38;;;1.84
6550;BMP280;15142;48.888;9.134;2022-12-10T10:08:54;97149.53;;;1.74
6550;BMP280;15142;48.888;9.134;2022-12-10T10:11:24;97137.59;;;1.65
6550;BMP280;15142;48.888;9.134;2022-12-10T10:13:53;97144.84;;;1.82
6550;BMP280;15142;48.888;9.134;2022-12-10T10:16:24;97138.78;;;1.83
6550;BMP280;15142;48.888;9.134;2022-12-10T10:18:55;97146.00;;;1.75
6550;BMP280;15142;48.888;9.134;2022-12-10T10:21:24;97141.22;;;1.74
6550;BMP280;15142;48.888;9.134;2022-12-10T10:23:52;97143.81;;;1.78
6550;BMP280;15142;48.888;9.134;2022-12-10T10:26:18;97143.81;;;1.83
6550;BMP280;15142;48.888;9.134;2022-12-10T10:28:45;97142.22;;;1.94
6550;BMP280;15142;48.888;9.134;2022-12-10T10:31:18;97142.97;;;1.94
6550;BMP280;15142;48.888;9.134;2022-12-10T10:33:52;97136.66;;;2.13
6550;BMP280;15142;48.888;9.134;2022-12-10T10:36:27;97140.06;;;2.02
6550;BMP280;15142;48.888;9.134;2022-12-10T10:38:55;97137.72;;;2.17
6550;BMP280;15142;48.888;9.134;2022-12-10T10:41:23;97132.13;;;2.36
6550;BMP280;15142;48.888;9.134;2022-12-10T10:43:58;97136.50;;;2.45
6550;BMP280;15142;48.888;9.134;2022-12-10T10:46:26;97136.03;;;2.48
6550;BMP280;15142;48.888;9.134;2022-12-10T10:49:13;97134.06;;;2.55
6550;BMP280;15142;48.888;9.134;2022-12-10T10:51:42;97135.91;;;2.39
6550;BMP280;15142;48.888;9.134;2022-12-10T10:54:08;97139.78;;;2.25
6550;BMP280;15142;48.888;9.134;2022-12-10T10:56:40;97128.59;;;2.11
6550;BMP280;15142;48.888;9.134;2022-12-10T10:59:18;97145.03;;;2.18
6550;BMP280;15142;48.888;9.134;2022-12-10T11:01:52;97153.16;;;2.04
6550;BMP280;15142;48.888;9.134;2022-12-10T11:04:24;97141.88;;;2.07
6550;BMP280;15142;48.888;9.134;2022-12-10T11:06:55;97143.81;;;2.21
6550;BMP280;15142;48.888;9.134;2022-12-10T11:09:25;97150.81;;;2.19
6550;BMP280;15142;48.888;9.134;2022-12-10T11:11:59;97153.56;;;2.17
6550;BMP280;15142;48.888;9.134;2022-12-10T11:14:29;97149.00;;;2.36
6550;BMP280;15142;48.888;9.134;2022-12-10T11:17:07;97150.25;;;2.64
6550;BMP280;15142;48.888;9.134;2022-12-10T11:19:32;97156.44;;;2.78
6550;BMP280;15142;48.888;9.134;2022-12-10T11:22:16;97151.06;;;3.01
6550;BMP280;15142;48.888;9.134;2022-12-10T11:24:46;97156.69;;;3.08
6550;BMP280;15142;48.888;9.134;2022-12-10T11:27:16;97164.22;;;2.77
6550;BMP280;15142;48.888;9.134;2022-12-10T11:29:49;97171.41;;;2.89
6550;BMP280;15142;48.888;9.134;2022-12-10T11:32:27;97159.72;;;3.14
6550;BMP280;15142;48.888;9.134;2022-12-10T11:35:04;97161.50;;;3.14
6550;BMP280;15142;48.888;9.134;2022-12-10T11:37:38;97157.44;;;3.08
6550;BMP280;15142;48.888;9.134;2022-12-10T11:40:30;97161.28;;;3.20
6550;BMP280;15142;48.888;9.134;2022-12-10T11:43:07;97161.78;;;3.17
6550;BMP280;15142;48.888;9.134;2022-12-10T11:45:48;97159.22;;;3.08
6550;BMP280;15142;48.888;9.134;2022-12-10T11:48:28;97159.72;;;3.10
6550;BMP280;15142;48.888;9.134;2022-12-10T11:51:00;97163.56;;;3.22
6550;BMP280;15142;48.888;9.134;2022-12-10T11:53:41;97159.72;;;3.10
6550;BMP280;15142;48.888;9.134;2022-12-10T11:56:15;97164.91;;;2.98
6550;BMP280;15142;48.888;9.134;2022-12-10T11:58:54;97161.50;;;3.14
6550;BMP280;15142;48.888;9.134;2022-12-10T12:01:35;97154.94;;;3.13
6550;BMP280;15142;48.888;9.134;2022-12-10T12:04:30;97155.88;;;3.02
6550;BMP280;15142;48.888;9.134;2022-12-10T12:07:11;97167.72;;;3.02
6550;BMP280;15142;48.888;9.134;2022-12-10T12:09:48;97159.44;;;3.06
6550;BMP280;15142;48.888;9.134;2022-12-10T12:12:27;97156.69;;;3.08
6550;BMP280;15142;48.888;9.134;2022-12-10T12:15:00;97169.94;;;3.29
6550;BMP280;15142;48.888;9.134;2022-12-10T12:17:30;97160.81;;;3.23
6550;BMP280;15142;48.888;9.134;2022-12-10T12:20:00;97155.16;;;3.07
6550;BMP280;15142;48.888;9.134;2022-12-10T12:22:33;97164.28;;;3.13
6550;BMP280;15142;48.888;9.134;2022-12-10T12:25:04;97166.72;;;3.03
6550;BMP280;15142;48.888;9.134;2022-12-10T12:27:35;97165.09;;;3.23
6550;BMP280;15142;48.888;9.134;2022-12-10T12:30:05;97164.78;;;3.14
6550;BMP280;15142;48.888;9.134;2022-12-10T12:32:42;97169.56;;;3.16
6550;BMP280;15142;48.888;9.134;2022-12-10T12:35:14;97175.69;;;3.25
6550;BMP280;15142;48.888;9.134;2022-12-10T12:37:47;97171.16;;;3.27
6550;BMP280;15142;48.888;9.134;2022-12-10T12:40:27;97176.31;;;3.06
6550;BMP280;15142;48.888;9.134;2022-12-10T12:42:58;97175.75;;;2.99
6550;BMP280;15142;48.888;9.134;2022-12-10T12:45:31;97176.50;;;2.99
6550;BMP280;15142;48.888;9.134;2022-12-10T12:48:02;97171.72;;;2.98
6550;BMP280;15142;48.888;9.134;2022-12-10T12:50:41;97170.75;;;3.04
6550;BMP280;15142;48.888;9.134;2022-12-10T12:53:13;97181.50;;;2.94
6550;BMP280;15142;48.888;9.134;2022-12-10T12:55:46;97182.97;;;2.90
6550;BMP280;15142;48.888;9.134;2022-12-10T12:58:21;97185.19;;;2.87
6550;BMP280;15142;48.888;9.134;2022-12-10T13:00:51;97184.78;;;2.95
6550;BMP280;15142;48.888;9.134;2022-12-10T13:03:29;97192.75;;;2.82
6550;BMP280;15142;48.888;9.134;2022-12-10T13:06:12;97197.91;;;2.71
6550;BMP280;15142;48.888;9.134;2022-12-10T13:08:44;97194.34;;;2.67
6550;BMP280;15142;48.888;9.134;2022-12-10T13:11:33;97201.66;;;2.68
6550;BMP280;15142;48.888;9.134;2022-12-10T13:14:31;97201.06;;;2.35
6550;BMP280;15142;48.888;9.134;2022-12-10T13:17:05;97209.31;;;2.31
6550;BMP280;15142;48.888;9.134;2022-12-10T13:19:32;97209.66;;;2.39
6550;BMP280;15142;48.888;9.134;2022-12-10T13:22:05;97204.81;;;2.33
6550;BMP280;15142;48.888;9.134;2022-12-10T13:25:06;97205.06;;;2.10
6550;BMP280;15142;48.888;9.134;2022-12-10T13:27:36;97207.94;;;2.23
6550;BMP280;15142;48.888;9.134;2022-12-10T13:30:30;97214.81;;;2.28
6550;BMP280;15142;48.888;9.134;2022-12-10T13:33:09;97215.78;;;2.22
6550;BMP280;15142;48.888;9.134;2022-12-10T13:35:44;97230.09;;;2.21
6550;BMP280;15142;48.888;9.134;2022-12-10T13:38:21;97228.38;;;2.27
6550;BMP280;15142;48.888;9.134;2022-12-10T13:41:00;97226.69;;;2.32
6550;BMP280;15142;48.888;9.134;2022-12-10T13:43:52;97239.28;;;2.11
6550;BMP280;15142;48.888;9.134;2022-12-10T13:46:52;97233.97;;;2.08
6550;BMP280;15142;48.888;9.134;2022-12-10T13:49:20;97243.56;;;2.10
6550;BMP280;15142;48.888;9.134;2022-12-10T13:51:59;97239.75;;;2.08
6550;BMP280;15142;48.888;9.134;2022-12-10T13:54:54;97242.25;;;2.08
6550;BMP280;15142;48.888;9.134;2022-12-10T14:00:20;97249.06;;;1.91
6550;BMP280;15142;48.888;9.134;2022-12-10T14:03:09;97259.41;;;1.95
6550;BMP280;15142;48.888;9.134;2022-12-10T14:05:58;97261.19;;;1.94
6550;BMP280;15142;48.888;9.134;2022-12-10T14:08:31;97259.72;;;1.98
6550;BMP280;15142;48.888;9.134;2022-12-10T14:11:00;97262.25;;;1.98
6550;BMP280;15142;48.888;9.134;2022-12-10T14:13:33;97274.34;;;2.01
6550;BMP280;15142;48.888;9.134;2022-12-10T14:16:02;97276.28;;;1.94
6550;BMP280;15142;48.888;9.134;2022-12-10T14:18:31;97281.84;;;1.96
6550;BMP280;15142;48.888;9.134;2022-12-10T14:21:03;97276.34;;;1.83
6550;BMP280;15142;48.888;9.134;2022-12-10T14:23:33;97281.59;;;1.81
6550;BMP280;15142;48.888;9.134;2022-12-10T14:26:06;97280.22;;;1.90
6550;BMP280;15142;48.888;9.134;2022-12-10T14:28:40;97292.44;;;1.82
6550;BMP280;15142;48.888;9.134;2022-12-10T14:31:13;97290.97;;;1.86
6550;BMP280;15142;48.888;9.134;2022-12-10T14:33:44;97293.72;;;1.84
6550;BMP280;15142;48.888;9.134;2022-12-10T14:36:16;97291.53;;;1.88
6550;BMP280;15142;48.888;9.134;2022-12-10T14:38:45;97298.00;;;1.84
6550;BMP280;15142;48.888;9.134;2022-12-10T14:41:15;97297.22;;;1.83
6550;BMP280;15142;48.888;9.134;2022-12-10T14:43:44;97297.53;;;1.87
6550;BMP280;15142;48.888;9.134;2022-12-10T14:46:14;97307.28;;;1.83
6550;BMP280;15142;48.888;9.134;2022-12-10T14:48:42;97303.19;;;1.77
6550;BMP280;15142;48.888;9.134;2022-12-10T14:51:13;97308.47;;;1.76
6550;BMP280;15142;48.888;9.134;2022-12-10T14:53:40;97308.69;;;1.75
6550;BMP280;15142;48.888;9.134;2022-12-10T14:56:08;97319.31;;;1.81